Time;durP1;ratioP1;P1;durP2;ratioP2;P2;SDS_P1;SDS_P2;PMS_P1;PMS_P2;Temp;Humidity;BMP_temperature;BMP_pressure;BME280_temperature;BME280_humidity;BME280_pressure;Samples;Min_cycle;Max_cycle;Signal;HPM_P1;HPM_P2
2021/08/07 00:01:25;;;;;;;13.20;5.28;;;16.90;86.40;;;;;;5014619;28;20120;-77
2021/08/07 00:03:53;;;;;;;10.43;4.10;;;16.80;86.30;;;;;;5011965;28;20128;-76
2021/08/07 00:06:18;;;;;;;13.32;5.30;;;16.80;86.50;;;;;;5006336;28;20033;-74
2021/08/07 00:08:44;;;;;;;12.50;4.85;;;16.80;86.50;;;;;;5008495;28;20535;-72
2021/08/07 00:11:10;;;;;;;13.40;4.97;;;16.80;86.50;;;;;;4999792;28;20046;-72
2021/08/07 00:13:36;;;;;;;12.05;5.18;;;16.80;86.50;;;;;;5000612;28;20069;-74
2021/08/07 00:16:02;;;;;;;13.43;4.60;;;16.90;86.40;;;;;;5004979;28;20021;-75
2021/08/07 00:18:29;;;;;;;10.63;4.53;;;16.80;86.50;;;;;;5002686;28;20097;-72
2021/08/07 00:20:54;;;;;;;8.55;4.05;;;16.90;86.50;;;;;;5007507;28;20042;-74
2021/08/07 00:23:20;;;;;;;9.68;4.05;;;16.90;86.60;;;;;;5009144;28;20045;-83
2021/08/07 00:25:46;;;;;;;12.98;5.07;;;16.90;86.70;;;;;;5004541;28;20362;-71
2021/08/07 00:28:12;;;;;;;11.50;4.35;;;16.90;86.60;;;;;;5010233;28;20372;-73
2021/08/07 00:30:37;;;;;;;12.80;4.90;;;16.90;86.70;;;;;;5013698;28;20397;-75
2021/08/07 00:33:03;;;;;;;10.02;4.65;;;16.80;86.70;;;;;;5010529;28;20033;-73
2021/08/07 00:35:29;;;;;;;8.80;3.45;;;16.80;86.80;;;;;;5007170;28;20347;-75
2021/08/07 00:37:55;;;;;;;11.13;4.65;;;16.80;86.90;;;;;;5014900;28;20077;-74
2021/08/07 00:40:20;;;;;;;10.93;3.92;;;16.90;87.10;;;;;;5011321;28;20158;-72
2021/08/07 00:42:46;;;;;;;9.15;3.80;;;16.80;86.80;;;;;;5013230;28;20033;-71
2021/08/07 00:45:12;;;;;;;13.85;4.45;;;16.80;86.90;;;;;;5008931;28;20038;-71
2021/08/07 00:47:38;;;;;;;11.20;3.78;;;16.80;86.70;;;;;;5011059;28;20488;-72
2021/08/07 00:50:05;;;;;;;12.65;4.20;;;16.80;86.40;;;;;;5013470;28;20033;-74
2021/08/07 00:52:32;;;;;;;9.38;4.00;;;16.80;86.50;;;;;;5000885;28;20030;-79
2021/08/07 00:54:59;;;;;;;13.07;4.53;;;16.80;86.50;;;;;;5011667;28;20383;-71
2021/08/07 00:57:25;;;;;;;10.38;3.85;;;16.80;86.50;;;;;;5018240;28;20045;-71
2021/08/07 00:59:51;;;;;;;10.70;4.53;;;16.80;86.70;;;;;;5026729;28;20236;-74
2021/08/07 01:02:19;;;;;;;7.07;3.80;;;16.80;86.70;;;;;;5026592;28;20128;-75
2021/08/07 01:04:56;;;;;;;12.85;3.90;;;16.80;86.80;;;;;;5028505;28;20120;-72
2021/08/07 01:07:44;;;;;;;13.57;4.43;;;16.90;86.80;;;;;;5030742;28;20091;-72
2021/08/07 01:10:25;;;;;;;12.88;4.07;;;16.80;86.50;;;;;;5027926;28;20041;-73
2021/08/07 01:13:19;;;;;;;11.27;4.20;;;16.80;86.60;;;;;;5023050;28;20033;-73
2021/08/07 01:15:50;;;;;;;13.48;4.00;;;16.70;86.40;;;;;;5008995;28;20041;-74
2021/08/07 01:18:20;;;;;;;9.63;3.83;;;16.70;86.60;;;;;;4996280;28;21062;-72
2021/08/07 01:20:50;;;;;;;13.65;4.00;;;16.70;86.70;;;;;;5005083;28;20029;-73
2021/08/07 01:23:40;;;;;;;11.13;3.83;;;16.70;86.80;;;;;;5001105;28;20362;-72
2021/08/07 01:26:22;;;;;;;10.13;3.40;;;16.70;86.80;;;;;;5009812;28;20076;-72
2021/08/07 01:28:50;;;;;;;9.65;3.78;;;16.60;86.90;;;;;;5007132;28;20026;-72
2021/08/07 01:31:18;;;;;;;11.48;3.92;;;16.60;87.00;;;;;;5005296;28;20061;-75
2021/08/07 01:33:45;;;;;;;10.95;4.28;;;16.60;87.20;;;;;;5009315;28;20121;-72
2021/08/07 01:36:14;;;;;;;10.60;3.72;;;16.60;87.00;;;;;;5007754;28;20030;-74
2021/08/07 01:38:44;;;;;;;10.63;3.95;;;16.60;86.90;;;;;;5005808;28;20537;-72
2021/08/07 01:41:28;;;;;;;13.35;3.72;;;16.50;86.90;;;;;;5015418;28;20037;-74
2021/08/07 01:43:53;;;;;;;12.90;3.65;;;16.50;87.00;;;;;;5000457;28;20484;-72
2021/08/07 01:46:20;;;;;;;11.13;3.55;;;16.50;86.90;;;;;;4996995;28;20046;-75
2021/08/07 01:49:00;;;;;;;14.93;4.15;;;16.40;87.10;;;;;;4995712;28;20128;-71
2021/08/07 01:51:39;;;;;;;9.38;3.80;;;16.40;87.20;;;;;;5026409;28;20037;-72
2021/08/07 01:54:06;;;;;;;11.70;3.13;;;16.40;87.20;;;;;;5026908;28;20049;-72
2021/08/07 01:56:41;;;;;;;12.50;3.78;;;16.30;87.20;;;;;;5027564;28;20049;-72
2021/08/07 01:59:11;;;;;;;12.35;4.20;;;16.30;87.40;;;;;;5030302;28;20160;-72
2021/08/07 02:01:38;;;;;;;9.75;3.42;;;16.30;87.50;;;;;;5031400;28;20045;-72
2021/08/07 02:04:05;;;;;;;8.82;3.40;;;16.30;87.60;;;;;;5018675;28;20139;-74
2021/08/07 02:06:31;;;;;;;9.80;3.80;;;16.30;87.70;;;;;;5020052;28;20068;-73
2021/08/07 02:08:58;;;;;;;9.88;3.25;;;16.30;87.70;;;;;;5005171;28;20169;-84
2021/08/07 02:11:24;;;;;;;9.00;3.47;;;16.20;87.40;;;;;;5005072;28;20122;-79
2021/08/07 02:13:53;;;;;;;8.15;3.35;;;16.10;87.60;;;;;;5008566;28;20035;-72
2021/08/07 02:16:19;;;;;;;12.23;3.83;;;16.10;87.60;;;;;;5005441;28;20061;-76
2021/08/07 02:18:46;;;;;;;12.90;3.78;;;16.10;87.70;;;;;;5001901;28;20715;-72
2021/08/07 02:21:12;;;;;;;10.10;3.33;;;16.00;87.70;;;;;;5004705;28;20044;-72
2021/08/07 02:23:39;;;;;;;9.30;3.75;;;16.00;88.00;;;;;;5016819;28;20445;-72
2021/08/07 02:26:07;;;;;;;13.88;3.50;;;15.90;87.90;;;;;;5030454;28;20037;-72
2021/08/07 02:28:34;;;;;;;7.85;3.13;;;15.90;88.00;;;;;;5008287;28;20469;-73
2021/08/07 02:31:02;;;;;;;9.25;3.70;;;15.80;88.00;;;;;;5027232;28;20083;-71
2021/08/07 02:33:29;;;;;;;12.82;3.95;;;15.90;88.20;;;;;;5021386;28;20037;-80
2021/08/07 02:35:57;;;;;;;13.25;4.43;;;15.90;88.10;;;;;;5004029;28;20108;-81
2021/08/07 02:38:26;;;;;;;10.65;3.80;;;15.80;88.10;;;;;;5000845;28;20042;-86
2021/08/07 02:40:56;;;;;;;13.70;4.20;;;15.70;88.20;;;;;;5023889;28;20104;-72
2021/08/07 02:43:23;;;;;;;12.77;4.10;;;15.70;88.30;;;;;;5026645;28;20037;-75
2021/08/07 02:45:50;;;;;;;11.10;4.50;;;15.70;88.30;;;;;;5030451;28;20030;-76
2021/08/07 02:48:15;;;;;;;11.60;4.18;;;15.60;88.30;;;;;;5027370;28;20089;-80
2021/08/07 02:50:43;;;;;;;10.68;4.38;;;15.70;88.40;;;;;;5033748;28;20473;-71
2021/08/07 02:53:13;;;;;;;10.98;4.53;;;15.70;88.40;;;;;;5030780;28;20029;-75
2021/08/07 02:55:40;;;;;;;11.95;4.93;;;15.60;88.30;;;;;;5024759;28;20113;-73
2021/08/07 02:58:06;;;;;;;9.55;4.40;;;15.60;88.30;;;;;;5004493;28;20046;-81
2021/08/07 03:00:34;;;;;;;9.25;4.38;;;15.70;88.30;;;;;;5005067;28;20492;-72
2021/08/07 03:03:00;;;;;;;9.85;4.15;;;15.70;88.10;;;;;;5010712;28;20179;-75
2021/08/07 03:05:25;;;;;;;11.10;4.05;;;15.70;88.00;;;;;;5027451;28;20657;-72
2021/08/07 03:07:51;;;;;;;9.00;3.63;;;15.70;88.00;;;;;;5010712;28;20350;-75
2021/08/07 03:10:17;;;;;;;12.48;4.60;;;15.70;88.00;;;;;;5006521;28;20029;-72
2021/08/07 03:12:44;;;;;;;9.35;3.88;;;15.70;87.80;;;;;;5004061;28;20087;-71
2021/08/07 03:15:11;;;;;;;9.45;4.53;;;15.80;87.70;;;;;;5015824;28;20036;-71
2021/08/07 03:17:40;;;;;;;14.57;3.88;;;15.80;87.50;;;;;;4999042;28;20141;-73
2021/08/07 03:20:09;;;;;;;9.82;3.60;;;15.80;87.40;;;;;;5010681;28;20461;-71
2021/08/07 03:22:35;;;;;;;12.95;4.03;;;15.80;87.50;;;;;;5003376;28;20091;-72
2021/08/07 03:25:01;;;;;;;13.27;3.80;;;15.80;87.40;;;;;;5008236;28;20128;-77
2021/08/07 03:27:27;;;;;;;9.52;3.63;;;15.90;87.40;;;;;;5011084;28;20034;-72
2021/08/07 03:29:53;;;;;;;9.63;3.53;;;15.90;87.50;;;;;;5003744;28;20029;-76
2021/08/07 03:32:18;;;;;;;9.90;3.60;;;15.90;87.40;;;;;;5008051;28;20033;-72
2021/08/07 03:34:44;;;;;;;8.00;3.22;;;15.90;87.30;;;;;;5007035;28;20036;-77
2021/08/07 03:37:10;;;;;;;12.27;3.40;;;15.90;87.00;;;;;;5000784;28;20050;-72
2021/08/07 03:39:37;;;;;;;9.13;3.33;;;15.90;86.90;;;;;;5003978;28;20057;-74
2021/08/07 03:42:03;;;;;;;9.23;3.67;;;15.90;87.10;;;;;;5019355;28;20025;-74
2021/08/07 03:44:29;;;;;;;10.90;3.50;;;15.90;87.00;;;;;;5009553;28;20033;-73
2021/08/07 03:46:54;;;;;;;9.43;3.40;;;16.00;87.00;;;;;;5014980;28;20365;-72
2021/08/07 03:49:20;;;;;;;9.75;3.17;;;16.00;87.00;;;;;;5015890;28;20060;-72
2021/08/07 03:51:46;;;;;;;10.82;3.30;;;16.00;87.20;;;;;;5007105;28;20112;-73
2021/08/07 03:54:11;;;;;;;9.88;3.28;;;16.00;87.20;;;;;;5013875;28;20346;-73
2021/08/07 03:56:37;;;;;;;8.38;3.03;;;15.90;87.20;;;;;;5013054;28;20049;-77
2021/08/07 03:59:03;;;;;;;11.18;3.35;;;15.90;87.30;;;;;;5003115;28;20464;-72
2021/08/07 04:01:29;;;;;;;8.68;3.08;;;15.90;87.10;;;;;;5011629;28;20032;-73
2021/08/07 04:03:54;;;;;;;9.02;3.03;;;15.90;87.30;;;;;;5002753;28;20033;-82
2021/08/07 04:06:20;;;;;;;11.35;3.17;;;15.90;87.40;;;;;;5024688;28;20983;-74
2021/08/07 04:08:46;;;;;;;10.93;3.00;;;16.00;87.40;;;;;;5008195;28;20028;-72
2021/08/07 04:11:11;;;;;;;8.68;3.10;;;15.90;87.50;;;;;;5000730;28;20064;-72
2021/08/07 04:13:37;;;;;;;9.93;3.00;;;15.90;87.50;;;;;;5003894;28;20110;-73
2021/08/07 04:16:04;;;;;;;10.77;3.33;;;15.90;87.70;;;;;;5004747;28;20038;-77
2021/08/07 04:18:29;;;;;;;8.63;2.75;;;15.80;87.40;;;;;;5006007;28;20404;-78
2021/08/07 04:20:55;;;;;;;8.65;2.90;;;15.80;87.60;;;;;;5007468;28;20139;-72
2021/08/07 04:23:21;;;;;;;8.32;2.95;;;15.80;87.70;;;;;;5006318;28;20475;-72
2021/08/07 04:25:47;;;;;;;7.43;2.70;;;15.80;87.70;;;;;;5009258;28;20049;-73
2021/08/07 04:28:13;;;;;;;11.00;3.47;;;15.80;87.90;;;;;;4999499;28;20117;-72
2021/08/07 04:30:38;;;;;;;8.90;2.95;;;15.80;87.90;;;;;;5008127;28;20429;-87
2021/08/07 04:33:04;;;;;;;11.63;3.33;;;15.80;88.10;;;;;;5007907;28;20042;-72
2021/08/07 04:35:30;;;;;;;12.02;3.33;;;15.70;88.10;;;;;;4997994;28;20114;-76
2021/08/07 04:37:58;;;;;;;11.45;3.83;;;15.60;88.30;;;;;;4997730;28;20390;-72
2021/08/07 04:40:26;;;;;;;10.40;3.45;;;15.70;88.40;;;;;;5006615;28;20513;-72
2021/08/07 04:42:52;;;;;;;9.05;3.40;;;15.70;88.50;;;;;;5009344;28;20029;-74
2021/08/07 04:45:18;;;;;;;12.40;4.28;;;15.60;88.70;;;;;;5010143;28;20035;-72
2021/08/07 04:47:59;;;;;;;11.80;3.70;;;15.70;88.80;;;;;;5011232;28;20030;-72
2021/08/07 04:50:28;;;;;;;9.85;3.75;;;15.70;88.90;;;;;;5007281;28;20112;-73
2021/08/07 04:52:53;;;;;;;12.18;4.43;;;15.70;88.80;;;;;;5026787;28;20055;-72
2021/08/07 04:55:19;;;;;;;11.07;4.10;;;15.60;88.70;;;;;;5027492;28;20384;-73
2021/08/07 04:57:45;;;;;;;13.77;4.50;;;15.60;88.80;;;;;;5028422;28;20503;-71
2021/08/07 05:00:12;;;;;;;9.23;4.20;;;15.60;88.80;;;;;;5027515;28;20044;-72
2021/08/07 05:02:37;;;;;;;13.85;3.97;;;15.70;88.90;;;;;;5032128;28;20028;-73
2021/08/07 05:05:03;;;;;;;8.60;2.92;;;15.70;88.80;;;;;;5022352;28;20919;-73
2021/08/07 05:07:31;;;;;;;10.98;3.35;;;15.70;88.80;;;;;;5032887;28;20060;-74
2021/08/07 05:09:57;;;;;;;9.98;3.55;;;15.80;88.90;;;;;;5024448;28;20036;-78
2021/08/07 05:12:24;;;;;;;8.07;3.10;;;15.80;89.00;;;;;;5030012;28;20085;-72
2021/08/07 05:14:50;;;;;;;12.10;4.07;;;15.90;89.00;;;;;;5035771;28;20152;-73
2021/08/07 05:17:15;;;;;;;10.93;3.80;;;16.00;89.00;;;;;;5021422;28;20124;-71
2021/08/07 05:19:41;;;;;;;10.70;3.83;;;16.00;89.00;;;;;;5009811;28;20037;-79
2021/08/07 05:22:06;;;;;;;10.30;3.50;;;16.00;88.80;;;;;;5030004;28;20021;-73
2021/08/07 05:24:32;;;;;;;9.40;3.60;;;16.00;88.80;;;;;;5028002;28;20049;-73
2021/08/07 05:26:58;;;;;;;9.57;3.88;;;16.00;88.70;;;;;;5024994;28;20074;-72
2021/08/07 05:29:23;;;;;;;7.25;3.33;;;16.00;88.30;;;;;;5026994;28;20038;-73
2021/08/07 05:31:49;;;;;;;11.27;4.22;;;16.00;88.20;;;;;;5026220;28;20052;-73
2021/08/07 05:34:15;;;;;;;9.75;4.03;;;16.00;88.20;;;;;;5027350;28;20357;-77
2021/08/07 05:36:40;;;;;;;10.13;4.50;;;16.00;88.10;;;;;;5021469;28;20435;-72
2021/08/07 05:39:06;;;;;;;10.63;6.65;;;16.10;88.00;;;;;;5025911;28;20063;-74
2021/08/07 05:41:32;;;;;;;11.52;6.40;;;16.10;87.90;;;;;;5018612;28;20045;-77
2021/08/07 05:43:57;;;;;;;12.75;6.00;;;16.20;88.00;;;;;;5020877;28;20471;-73
2021/08/07 05:46:23;;;;;;;13.48;5.53;;;16.20;87.20;;;;;;5030156;28;20101;-77
2021/08/07 05:48:54;;;;;;;11.05;5.32;;;16.40;87.00;;;;;;5031380;28;20409;-72
2021/08/07 05:51:20;;;;;;;9.23;4.57;;;16.40;86.60;;;;;;5014090;28;20287;-75
2021/08/07 05:53:46;;;;;;;11.70;4.05;;;16.50;86.40;;;;;;5029510;28;20038;-72
2021/08/07 05:56:11;;;;;;;8.05;3.10;;;16.60;86.20;;;;;;5027946;28;20044;-81
2021/08/07 05:58:37;;;;;;;7.20;3.10;;;16.60;85.90;;;;;;5027154;28;20811;-73
2021/08/07 06:01:07;;;;;;;11.50;3.17;;;16.80;85.80;;;;;;5026712;28;20075;-74
2021/08/07 06:03:33;;;;;;;6.25;2.83;;;17.00;84.30;;;;;;5032392;28;20528;-74
2021/08/07 06:05:59;;;;;;;9.63;3.25;;;17.10;84.20;;;;;;5031217;28;20032;-75
2021/08/07 06:08:25;;;;;;;9.07;3.42;;;17.10;83.50;;;;;;5024732;28;20479;-72
2021/08/07 06:10:51;;;;;;;7.75;3.60;;;17.10;83.90;;;;;;5030061;28;20045;-72
2021/08/07 06:13:16;;;;;;;11.20;3.63;;;17.20;84.00;;;;;;5034070;28;20033;-72
2021/08/07 06:15:42;;;;;;;7.85;4.18;;;17.30;83.50;;;;;;5029562;28;20353;-83
2021/08/07 06:18:08;;;;;;;11.35;4.63;;;17.40;83.60;;;;;;5030654;28;20037;-78
2021/08/07 06:20:34;;;;;;;8.65;4.55;;;17.60;83.30;;;;;;5021969;28;20366;-79
2021/08/07 06:23:00;;;;;;;12.90;4.50;;;17.70;83.20;;;;;;5029981;28;20034;-75
2021/08/07 06:25:25;;;;;;;9.00;4.70;;;17.80;82.30;;;;;;5026394;28;20443;-74
2021/08/07 06:27:54;;;;;;;7.85;4.43;;;17.80;82.40;;;;;;5023163;28;20033;-74
2021/08/07 06:30:24;;;;;;;11.93;5.22;;;17.80;81.80;;;;;;5021271;28;20037;-73
2021/08/07 06:32:52;;;;;;;9.82;5.10;;;17.80;81.30;;;;;;5017806;28;20070;-77
2021/08/07 06:35:18;;;;;;;11.07;5.70;;;17.80;81.70;;;;;;5014123;28;20041;-70
2021/08/07 06:37:44;;;;;;;11.00;7.00;;;17.70;80.90;;;;;;5019690;28;20049;-70
2021/08/07 06:40:11;;;;;;;10.73;6.82;;;17.60;81.50;;;;;;5025760;28;20053;-70
2021/08/07 06:42:37;;;;;;;14.23;7.70;;;17.70;81.60;;;;;;5029393;28;20084;-70
2021/08/07 06:45:04;;;;;;;12.32;6.72;;;17.90;82.10;;;;;;5024354;28;20041;-70
2021/08/07 06:47:30;;;;;;;13.02;7.30;;;18.30;81.30;;;;;;5025570;28;20052;-69
2021/08/07 06:49:55;;;;;;;12.48;8.18;;;18.50;80.50;;;;;;5015610;28;20041;-69
2021/08/07 06:52:21;;;;;;;14.07;9.02;;;18.60;80.00;;;;;;5014606;28;20402;-70
2021/08/07 06:54:47;;;;;;;13.18;8.55;;;18.50;79.50;;;;;;5005991;28;20042;-72
2021/08/07 06:57:16;;;;;;;12.73;7.78;;;18.60;78.70;;;;;;5010091;28;20409;-70
2021/08/07 06:59:42;;;;;;;13.02;8.15;;;18.60;78.80;;;;;;5007828;28;20067;-76
2021/08/07 07:02:08;;;;;;;15.80;8.00;;;18.70;77.40;;;;;;5009324;28;20434;-70
2021/08/07 07:04:34;;;;;;;15.80;7.47;;;18.60;77.90;;;;;;5024145;28;20029;-72
2021/08/07 07:07:00;;;;;;;11.60;6.93;;;18.90;78.70;;;;;;5025430;28;20419;-72
2021/08/07 07:09:26;;;;;;;10.38;6.60;;;19.10;77.30;;;;;;5023734;28;20119;-72
2021/08/07 07:11:52;;;;;;;12.70;6.88;;;19.10;77.00;;;;;;5025126;28;20504;-71
2021/08/07 07:14:18;;;;;;;14.10;5.97;;;19.10;76.90;;;;;;5025864;28;20444;-70
2021/08/07 07:16:44;;;;;;;10.90;4.80;;;19.30;77.00;;;;;;5029293;28;20465;-71
2021/08/07 07:19:09;;;;;;;8.52;4.13;;;19.50;76.20;;;;;;5023993;28;20037;-77
2021/08/07 07:21:35;;;;;;;10.93;3.95;;;19.40;74.80;;;;;;5025009;28;20433;-76
2021/08/07 07:24:01;;;;;;;10.32;4.18;;;19.50;75.60;;;;;;5022133;28;20470;-72
2021/08/07 07:26:28;;;;;;;8.10;3.45;;;19.60;75.80;;;;;;5028750;28;20038;-70
2021/08/07 07:28:57;;;;;;;14.10;4.65;;;19.60;74.30;;;;;;5022245;28;20029;-70
2021/08/07 07:31:23;;;;;;;9.40;3.20;;;19.80;75.50;;;;;;5019583;28;20084;-71
2021/08/07 07:33:49;;;;;;;13.85;3.30;;;20.00;74.40;;;;;;5024322;28;20116;-70
2021/08/07 07:36:15;;;;;;;8.45;3.15;;;20.00;72.50;;;;;;5025659;28;20124;-69
2021/08/07 07:38:41;;;;;;;10.40;2.67;;;19.90;72.00;;;;;;5026239;28;20068;-69
2021/08/07 07:41:07;;;;;;;9.45;2.53;;;19.80;72.30;;;;;;5023316;28;20048;-77
2021/08/07 07:43:33;;;;;;;8.65;2.53;;;20.10;71.90;;;;;;5014154;28;20073;-71
2021/08/07 07:45:58;;;;;;;11.85;2.85;;;20.10;71.80;;;;;;5022723;28;20030;-71
2021/08/07 07:48:24;;;;;;;10.82;2.80;;;20.10;70.80;;;;;;5020339;28;20467;-73
2021/08/07 07:50:51;;;;;;;10.25;2.95;;;20.10;70.90;;;;;;5024430;28;20076;-71
2021/08/07 07:53:17;;;;;;;7.57;2.45;;;20.40;71.00;;;;;;5022036;28;20037;-71
2021/08/07 07:55:43;;;;;;;7.43;2.10;;;20.40;70.20;;;;;;5018044;28;20081;-74
2021/08/07 07:58:08;;;;;;;11.15;2.45;;;20.40;70.90;;;;;;5022349;28;20038;-74
2021/08/07 08:00:34;;;;;;;8.80;2.33;;;20.50;69.30;;;;;;5022046;28;20037;-70
2021/08/07 08:03:00;;;;;;;8.43;2.55;;;20.50;69.40;;;;;;5022214;28;20382;-70
2021/08/07 08:05:26;;;;;;;7.97;2.53;;;20.60;70.00;;;;;;5020809;28;20477;-72
2021/08/07 08:07:52;;;;;;;9.65;2.80;;;20.80;68.80;;;;;;5020339;28;20466;-71
2021/08/07 08:10:18;;;;;;;8.75;2.40;;;20.80;68.30;;;;;;5020177;28;20460;-70
2021/08/07 08:12:44;;;;;;;7.72;1.88;;;21.10;67.20;;;;;;5017491;28;20093;-75
2021/08/07 08:15:12;;;;;;;7.40;2.20;;;21.30;67.50;;;;;;5021472;28;20044;-70
2021/08/07 08:17:37;;;;;;;8.10;2.17;;;21.50;66.50;;;;;;5023687;28;20144;-72
2021/08/07 08:20:05;;;;;;;9.50;2.45;;;21.60;65.30;;;;;;5024335;28;20491;-69
2021/08/07 08:22:31;;;;;;;10.35;2.08;;;21.40;63.50;;;;;;5026127;28;20033;-70
2021/08/07 08:24:59;;;;;;;9.63;2.28;;;21.60;63.20;;;;;;5022539;28;20100;-70
2021/08/07 08:27:24;;;;;;;6.95;2.03;;;21.60;65.50;;;;;;5021242;28;20108;-70
2021/08/07 08:29:50;;;;;;;10.95;2.15;;;21.60;62.70;;;;;;5021471;28;20201;-70
2021/08/07 08:32:16;;;;;;;12.32;2.17;;;21.70;61.00;;;;;;5020834;28;20393;-71
2021/08/07 08:34:42;;;;;;;8.35;2.08;;;21.40;61.90;;;;;;5022643;28;20041;-72
2021/08/07 08:37:08;;;;;;;8.40;2.17;;;21.60;61.00;;;;;;5019715;28;20038;-70
2021/08/07 08:39:34;;;;;;;10.73;2.22;;;21.60;61.30;;;;;;5025668;28;20044;-70
2021/08/07 08:42:00;;;;;;;6.90;1.85;;;21.80;61.20;;;;;;5025808;28;20041;-70
2021/08/07 08:44:26;;;;;;;8.93;1.80;;;22.10;61.20;;;;;;5025789;28;20627;-69
2021/08/07 08:46:52;;;;;;;6.93;1.95;;;22.00;59.50;;;;;;5024650;28;20038;-69
2021/08/07 08:49:20;;;;;;;7.22;1.60;;;22.10;60.20;;;;;;5025342;28;20041;-70
2021/08/07 08:51:47;;;;;;;8.63;1.83;;;22.50;59.90;;;;;;5022069;28;20053;-77
2021/08/07 08:54:13;;;;;;;8.02;1.92;;;22.80;59.10;;;;;;5020237;28;20029;-70
2021/08/07 08:56:39;;;;;;;5.75;1.55;;;22.90;58.30;;;;;;5025532;28;20037;-75
2021/08/07 08:59:05;;;;;;;7.72;1.92;;;22.60;57.50;;;;;;5021627;28;20042;-72
2021/08/07 09:01:32;;;;;;;4.90;1.60;;;22.40;58.50;;;;;;5023639;28;20030;-70
2021/08/07 09:03:58;;;;;;;8.27;1.95;;;22.20;59.30;;;;;;5021504;28;20045;-69
2021/08/07 09:06:23;;;;;;;11.75;1.80;;;22.40;57.60;;;;;;5023910;28;20507;-70
2021/08/07 09:09:08;;;;;;;8.00;2.05;;;22.20;58.90;;;;;;5019927;28;20124;-69
2021/08/07 09:11:35;;;;;;;5.50;1.55;;;22.30;58.70;;;;;;5021898;28;20380;-70
2021/08/07 09:14:29;;;;;;;9.45;1.88;;;22.20;59.50;;;;;;5028066;28;20033;-74
2021/08/07 09:17:04;;;;;;;6.63;1.98;;;22.50;59.10;;;;;;5025145;28;20129;-69
2021/08/07 09:19:54;;;;;;;7.07;1.92;;;22.20;59.10;;;;;;5030680;28;20553;-72
2021/08/07 09:22:34;;;;;;;7.95;1.83;;;22.30;59.90;;;;;;5018665;28;20036;-69
2021/08/07 09:25:10;;;;;;;7.75;1.65;;;22.50;57.90;;;;;;5030020;28;20083;-71
2021/08/07 09:27:45;;;;;;;8.02;1.60;;;22.50;57.20;;;;;;5022791;28;20050;-69
2021/08/07 09:30:16;;;;;;;7.90;2.00;;;22.50;58.10;;;;;;5014731;28;20065;-71
2021/08/07 09:32:49;;;;;;;5.53;1.65;;;22.50;58.40;;;;;;5001935;28;20062;-71
2021/08/07 09:35:19;;;;;;;8.25;1.85;;;22.50;59.40;;;;;;4998164;28;20026;-70
2021/08/07 09:37:45;;;;;;;9.23;2.10;;;22.20;57.30;;;;;;5010487;28;20030;-71
2021/08/07 09:40:13;;;;;;;6.57;1.48;;;21.80;57.60;;;;;;5013911;28;20037;-70
2021/08/07 09:42:52;;;;;;;6.78;1.65;;;21.80;58.20;;;;;;5007235;28;20101;-70
2021/08/07 09:45:25;;;;;;;5.90;1.90;;;21.70;57.60;;;;;;5027963;28;20021;-70
2021/08/07 09:48:09;;;;;;;6.10;1.85;;;21.60;58.70;;;;;;5026050;28;20044;-71
2021/08/07 09:50:36;;;;;;;8.48;1.45;;;21.80;58.60;;;;;;5034509;28;20426;-70
2021/08/07 09:53:04;;;;;;;7.35;1.95;;;22.10;58.00;;;;;;5027394;28;20044;-74
2021/08/07 09:55:30;;;;;;;8.18;1.75;;;22.00;58.00;;;;;;5030689;28;20472;-69
2021/08/07 09:58:07;;;;;;;5.32;1.35;;;22.40;59.00;;;;;;5011748;28;20049;-71
2021/08/07 10:00:41;;;;;;;7.35;1.50;;;22.90;57.00;;;;;;5015087;28;20144;-70
2021/08/07 10:03:26;;;;;;;7.25;1.63;;;23.40;55.90;;;;;;5001626;28;20065;-70
2021/08/07 10:05:52;;;;;;;4.45;1.63;;;23.80;55.60;;;;;;5003394;28;20141;-71
2021/08/07 10:08:18;;;;;;;8.05;1.90;;;24.00;55.00;;;;;;5002734;28;20124;-70
2021/08/07 10:10:45;;;;;;;9.68;1.77;;;24.00;54.20;;;;;;5007758;28;20042;-74
2021/08/07 10:13:12;;;;;;;7.20;1.75;;;23.80;54.80;;;;;;4999346;28;20097;-69
2021/08/07 10:15:40;;;;;;;7.85;1.80;;;23.60;54.60;;;;;;5012314;28;20113;-71
2021/08/07 10:18:06;;;;;;;9.30;2.10;;;23.30;54.50;;;;;;5004357;28;20414;-72
2021/08/07 10:20:34;;;;;;;7.88;2.08;;;23.40;55.10;;;;;;5002400;28;20103;-70
2021/08/07 10:23:01;;;;;;;6.30;2.00;;;23.40;55.20;;;;;;5000812;28;20128;-69
2021/08/07 10:25:27;;;;;;;7.00;1.73;;;23.10;56.20;;;;;;5015156;28;20978;-70
2021/08/07 10:27:58;;;;;;;5.65;1.30;;;23.00;55.80;;;;;;5006327;28;20041;-71
2021/08/07 10:30:26;;;;;;;8.45;1.85;;;22.60;56.60;;;;;;5002930;28;20041;-69
2021/08/07 10:32:55;;;;;;;7.50;1.40;;;22.50;57.30;;;;;;5011046;28;20034;-69
2021/08/07 10:35:24;;;;;;;6.35;1.50;;;22.30;58.50;;;;;;5003887;28;20126;-70
2021/08/07 10:37:50;;;;;;;6.32;1.73;;;22.10;57.60;;;;;;5011180;28;20042;-69
2021/08/07 10:40:16;;;;;;;6.28;1.35;;;22.00;57.40;;;;;;5004175;28;20060;-69
2021/08/07 10:42:45;;;;;;;7.97;1.38;;;22.10;57.80;;;;;;5000242;28;20089;-69
2021/08/07 10:45:11;;;;;;;12.52;1.70;;;22.10;58.60;;;;;;5004442;28;20044;-70
2021/08/07 10:47:42;;;;;;;8.27;1.67;;;22.40;57.90;;;;;;5019507;28;20079;-69
2021/08/07 10:50:27;;;;;;;6.93;1.35;;;22.80;56.90;;;;;;5019486;28;20371;-71
2021/08/07 10:52:55;;;;;;;8.15;1.88;;;23.20;56.60;;;;;;5009767;28;20103;-70
2021/08/07 10:55:43;;;;;;;4.97;1.40;;;23.30;55.40;;;;;;5003294;28;20038;-70
2021/08/07 10:58:45;;;;;;;9.27;1.88;;;23.10;56.60;;;;;;4998239;28;20456;-74
2021/08/07 11:01:23;;;;;;;10.15;1.55;;;22.70;55.50;;;;;;5006348;28;20493;-70
2021/08/07 11:03:50;;;;;;;5.60;1.40;;;22.60;57.20;;;;;;5006450;28;20497;-69
2021/08/07 11:06:19;;;;;;;5.35;1.65;;;22.40;57.90;;;;;;5010025;28;20042;-69
2021/08/07 11:08:46;;;;;;;8.25;1.77;;;22.30;58.00;;;;;;5017286;28;20480;-71
2021/08/07 11:11:31;;;;;;;6.68;1.60;;;22.60;59.20;;;;;;5004204;28;20458;-70
2021/08/07 11:14:21;;;;;;;6.93;1.60;;;22.60;58.10;;;;;;5000324;28;20477;-73
2021/08/07 11:17:05;;;;;;;8.10;1.50;;;22.70;57.30;;;;;;5024984;28;20038;-76
2021/08/07 11:19:51;;;;;;;5.93;1.45;;;22.50;57.40;;;;;;5028828;28;20485;-69
2021/08/07 11:22:40;;;;;;;7.45;1.67;;;22.80;58.10;;;;;;5029605;28;20080;-70
2021/08/07 11:25:09;;;;;;;6.57;1.60;;;23.00;57.10;;;;;;5028642;28;20469;-69
2021/08/07 11:30:18;;;;;;;6.60;2.00;;;23.10;56.70;;;;;;5024002;28;20041;-70
2021/08/07 11:33:06;;;;;;;9.70;1.92;;;23.00;57.60;;;;;;5027234;28;20037;-70
2021/08/07 11:35:33;;;;;;;4.68;2.03;;;22.80;57.80;;;;;;5029617;28;20037;-73
2021/08/07 11:38:10;;;;;;;7.80;2.15;;;22.70;56.60;;;;;;5018476;28;20037;-70
2021/08/07 11:41:08;;;;;;;6.40;1.98;;;22.80;58.10;;;;;;5026755;28;20068;-70
2021/08/07 11:43:40;;;;;;;5.28;1.40;;;23.50;56.60;;;;;;5022139;28;20057;-69
2021/08/07 11:46:14;;;;;;;7.07;2.35;;;24.10;54.80;;;;;;5024994;28;20066;-70
2021/08/07 11:48:42;;;;;;;6.18;1.88;;;24.40;54.10;;;;;;5024164;28;20079;-72
2021/08/07 11:51:11;;;;;;;6.95;1.88;;;24.20;52.20;;;;;;5021606;28;20033;-71
2021/08/07 11:53:41;;;;;;;5.55;1.60;;;23.80;55.10;;;;;;5023224;28;20026;-78
2021/08/07 11:56:15;;;;;;;6.60;1.95;;;23.90;55.00;;;;;;5027332;28;20025;-73
2021/08/07 11:58:47;;;;;;;8.02;2.03;;;24.10;54.40;;;;;;5024348;28;20046;-71
2021/08/07 12:01:14;;;;;;;4.88;1.50;;;24.20;54.40;;;;;;5032228;28;20049;-73
2021/08/07 12:03:41;;;;;;;5.03;1.33;;;24.10;53.90;;;;;;5027064;28;20426;-72
2021/08/07 12:06:08;;;;;;;4.53;1.30;;;24.20;52.70;;;;;;4999369;28;20072;-71
2021/08/07 12:08:35;;;;;;;7.30;1.55;;;24.10;52.70;;;;;;4996969;28;20030;-70
2021/08/07 12:11:04;;;;;;;5.55;1.30;;;23.70;52.80;;;;;;4996973;28;20068;-71
2021/08/07 12:13:36;;;;;;;5.03;1.30;;;23.60;55.00;;;;;;5003884;28;20034;-70
2021/08/07 12:16:08;;;;;;;6.80;1.73;;;23.20;55.10;;;;;;5000397;28;20034;-71
2021/08/07 12:18:46;;;;;;;9.02;2.28;;;23.00;60.90;;;;;;4997237;28;20057;-70
2021/08/07 12:21:32;;;;;;;6.78;1.73;;;22.70;65.30;;;;;;4995067;28;20057;-77
2021/08/07 12:24:10;;;;;;;10.25;2.88;;;22.30;67.40;;;;;;4999505;28;20528;-80
2021/08/07 12:26:47;;;;;;;7.63;1.80;;;21.90;69.10;;;;;;5021202;28;20041;-79
2021/08/07 12:29:19;;;;;;;5.95;2.03;;;21.90;72.30;;;;;;5020687;28;20025;-69
2021/08/07 12:31:51;;;;;;;9.90;2.83;;;22.50;70.80;;;;;;5024842;28;20025;-79
2021/08/07 12:34:40;;;;;;;7.00;1.80;;;22.60;69.50;;;;;;5016386;28;20076;-74
2021/08/07 12:37:07;;;;;;;6.30;1.73;;;22.90;68.60;;;;;;5017748;28;20466;-76
2021/08/07 12:39:51;;;;;;;7.43;1.98;;;23.00;66.80;;;;;;5018091;28;20376;-76
2021/08/07 12:42:26;;;;;;;9.93;2.00;;;22.90;67.30;;;;;;5018693;28;20042;-70
2021/08/07 12:45:09;;;;;;;;;;;22.90;65.80;;;;;;5019472;28;20037;-70
2021/08/07 12:47:35;;;;;;;5.40;1.40;;;22.60;64.90;;;;;;5019098;28;20089;-76
2021/08/07 12:50:08;;;;;;;4.85;1.50;;;22.40;65.40;;;;;;5016830;28;20042;-70
2021/08/07 12:52:48;;;;;;;5.35;1.50;;;22.30;64.30;;;;;;5020063;28;20159;-71
2021/08/07 12:55:17;;;;;;;7.32;1.77;;;22.00;63.60;;;;;;5016554;28;20033;-71